sensor_id;sensor_type;location;lat;lon;timestamp;pressure;altitude;pressure_sealevel;temperature
29701;BMP280;57917;51.380;-0.176;2024-03-02T00:03:55;98774.31;;;5.46
29701;BMP280;57917;51.380;-0.176;2024-03-02T00:09:46;98777.09;;;5.35
29701;BMP280;57917;51.380;-0.176;2024-03-02T00:15:51;98782.38;;;5.30
29701;BMP280;57917;51.380;-0.176;2024-03-02T00:21:38;98773.81;;;5.43
29701;BMP280;57917;51.380;-0.176;2024-03-02T00:27:28;98776.81;;;5.37
29701;BMP280;57917;51.380;-0.176;2024-03-02T00:34:03;98774.22;;;5.32
29701;BMP280;57917;51.380;-0.176;2024-03-02T00:39:42;98784.34;;;5.38
29701;BMP280;57917;51.380;-0.176;2024-03-02T00:45:29;98770.84;;;5.31
29701;BMP280;57917;51.380;-0.176;2024-03-02T00:51:29;98774.00;;;5.28
29701;BMP280;57917;51.380;-0.176;2024-03-02T00:57:16;98766.09;;;5.33
29701;BMP280;57917;51.380;-0.176;2024-03-02T01:03:03;98746.44;;;5.31
29701;BMP280;57917;51.380;-0.176;2024-03-02T01:08:50;98751.75;;;5.44
29701;BMP280;57917;51.380;-0.176;2024-03-02T01:14:39;98748.44;;;5.58
29701;BMP280;57917;51.380;-0.176;2024-03-02T01:20:26;98754.97;;;5.60
29701;BMP280;57917;51.380;-0.176;2024-03-02T01:26:16;98757.50;;;5.65
29701;BMP280;57917;51.380;-0.176;2024-03-02T01:32:04;98746.97;;;5.84
29701;BMP280;57917;51.380;-0.176;2024-03-02T01:37:52;98740.66;;;5.85
29701;BMP280;57917;51.380;-0.176;2024-03-02T01:43:40;98743.72;;;5.92
29701;BMP280;57917;51.380;-0.176;2024-03-02T01:49:28;98738.78;;;6.04
29701;BMP280;57917;51.380;-0.176;2024-03-02T01:55:17;98739.19;;;6.11
29701;BMP280;57917;51.380;-0.176;2024-03-02T02:01:04;98734.41;;;6.13
29701;BMP280;57917;51.380;-0.176;2024-03-02T02:06:54;98729.28;;;6.21
29701;BMP280;57917;51.380;-0.176;2024-03-02T02:12:44;98736.66;;;6.19
29701;BMP280;57917;51.380;-0.176;2024-03-02T02:18:33;98729.69;;;6.28
29701;BMP280;57917;51.380;-0.176;2024-03-02T02:24:20;98739.81;;;6.35
29701;BMP280;57917;51.380;-0.176;2024-03-02T02:30:08;98729.63;;;6.47
29701;BMP280;57917;51.380;-0.176;2024-03-02T02:35:55;98717.47;;;6.51
29701;BMP280;57917;51.380;-0.176;2024-03-02T02:41:41;98715.00;;;6.41
29701;BMP280;57917;51.380;-0.176;2024-03-02T02:47:31;98710.25;;;6.43
29701;BMP280;57917;51.380;-0.176;2024-03-02T02:53:25;98715.00;;;6.41
29701;BMP280;57917;51.380;-0.176;2024-03-02T02:59:12;98698.69;;;6.44
29701;BMP280;57917;51.380;-0.176;2024-03-02T03:05:01;98693.03;;;6.51
29701;BMP280;57917;51.380;-0.176;2024-03-02T03:16:57;98680.47;;;6.61
29701;BMP280;57917;51.380;-0.176;2024-03-02T03:22:44;98682.09;;;6.57
29701;BMP280;57917;51.380;-0.176;2024-03-02T03:28:31;98673.09;;;6.50
29701;BMP280;57917;51.380;-0.176;2024-03-02T03:34:18;98659.81;;;6.55
29701;BMP280;57917;51.380;-0.176;2024-03-02T03:40:06;98646.63;;;6.46
29701;BMP280;57917;51.380;-0.176;2024-03-02T03:46:00;98636.59;;;6.48
29701;BMP280;57917;51.380;-0.176;2024-03-02T03:51:53;98644.66;;;6.38
29701;BMP280;57917;51.380;-0.176;2024-03-02T04:06:27;98622.47;;;6.44
29701;BMP280;57917;51.380;-0.176;2024-03-02T04:20:58;98622.88;;;6.51
29701;BMP280;57917;51.380;-0.176;2024-03-02T04:27:16;98605.91;;;6.57
29701;BMP280;57917;51.380;-0.176;2024-03-02T04:34:03;98606.28;;;6.64
29701;BMP280;57917;51.380;-0.176;2024-03-02T04:39:50;98601.63;;;6.61
29701;BMP280;57917;51.380;-0.176;2024-03-02T04:45:38;98615.13;;;6.55
29701;BMP280;57917;51.380;-0.176;2024-03-02T04:51:27;98612.34;;;6.51
29701;BMP280;57917;51.380;-0.176;2024-03-02T04:57:22;98616.63;;;6.61
29701;BMP280;57917;51.380;-0.176;2024-03-02T05:03:09;98607.34;;;6.63
29701;BMP280;57917;51.380;-0.176;2024-03-02T05:08:56;98622.81;;;6.65
29701;BMP280;57917;51.380;-0.176;2024-03-02T05:14:43;98609.00;;;6.59
29701;BMP280;57917;51.380;-0.176;2024-03-02T05:20:30;98612.13;;;6.61
29701;BMP280;57917;51.380;-0.176;2024-03-02T05:26:17;98598.84;;;6.44
29701;BMP280;57917;51.380;-0.176;2024-03-02T05:32:04;98594.63;;;6.43
29701;BMP280;57917;51.380;-0.176;2024-03-02T05:37:51;98587.53;;;6.43
29701;BMP280;57917;51.380;-0.176;2024-03-02T05:43:42;98584.03;;;6.48
29701;BMP280;57917;51.380;-0.176;2024-03-02T05:49:29;98574.56;;;6.61
29701;BMP280;57917;51.380;-0.176;2024-03-02T05:55:17;98566.72;;;6.69
29701;BMP280;57917;51.380;-0.176;2024-03-02T06:01:04;98570.56;;;6.63
29701;BMP280;57917;51.380;-0.176;2024-03-02T06:06:52;98579.47;;;6.76
29701;BMP280;57917;51.380;-0.176;2024-03-02T06:12:41;98561.13;;;6.84
29701;BMP280;57917;51.380;-0.176;2024-03-02T06:18:28;98563.03;;;6.70
29701;BMP280;57917;51.380;-0.176;2024-03-02T06:24:15;98575.31;;;6.75
29701;BMP280;57917;51.380;-0.176;2024-03-02T06:30:02;98578.63;;;6.67
29701;BMP280;57917;51.380;-0.176;2024-03-02T06:35:53;98563.28;;;6.60
29701;BMP280;57917;51.380;-0.176;2024-03-02T06:41:40;98556.81;;;6.66
29701;BMP280;57917;51.380;-0.176;2024-03-02T06:47:29;98563.03;;;6.70
29701;BMP280;57917;51.380;-0.176;2024-03-02T06:53:17;98565.75;;;6.79
29701;BMP280;57917;51.380;-0.176;2024-03-02T06:59:06;98568.38;;;6.79
29701;BMP280;57917;51.380;-0.176;2024-03-02T07:04:56;98565.44;;;6.80
29701;BMP280;57917;51.380;-0.176;2024-03-02T07:10:43;98559.44;;;7.02
29701;BMP280;57917;51.380;-0.176;2024-03-02T07:16:30;98588.28;;;6.93
29701;BMP280;57917;51.380;-0.176;2024-03-02T07:22:22;98587.09;;;6.77
29701;BMP280;57917;51.380;-0.176;2024-03-02T07:28:15;98576.44;;;6.82
29701;BMP280;57917;51.380;-0.176;2024-03-02T07:34:02;98590.31;;;6.96
29701;BMP280;57917;51.380;-0.176;2024-03-02T07:39:54;98596.59;;;7.09
29701;BMP280;57917;51.380;-0.176;2024-03-02T07:45:42;98619.03;;;7.06
29701;BMP280;57917;51.380;-0.176;2024-03-02T07:51:29;98613.97;;;6.96
29701;BMP280;57917;51.380;-0.176;2024-03-02T07:57:31;98622.63;;;6.75
29701;BMP280;57917;51.380;-0.176;2024-03-02T08:03:21;98582.41;;;6.25
29701;BMP280;57917;51.380;-0.176;2024-03-02T08:09:09;98621.31;;;6.86
29701;BMP280;57917;51.380;-0.176;2024-03-02T08:14:57;98619.94;;;6.88
29701;BMP280;57917;51.380;-0.176;2024-03-02T08:20:47;98637.31;;;7.11
29701;BMP280;57917;51.380;-0.176;2024-03-02T08:26:36;98627.97;;;7.05
29701;BMP280;57917;51.380;-0.176;2024-03-02T08:32:23;98645.66;;;6.91
29701;BMP280;57917;51.380;-0.176;2024-03-02T08:38:10;98642.44;;;7.38
29701;BMP280;57917;51.380;-0.176;2024-03-02T08:43:59;98631.63;;;8.74
29701;BMP280;57917;51.380;-0.176;2024-03-02T08:49:57;98631.66;;;8.83
29701;BMP280;57917;51.380;-0.176;2024-03-02T08:55:48;98632.69;;;8.39
29701;BMP280;57917;51.380;-0.176;2024-03-02T09:01:38;98653.59;;;7.97
29701;BMP280;57917;51.380;-0.176;2024-03-02T09:07:29;98645.25;;;7.42
29701;BMP280;57917;51.380;-0.176;2024-03-02T09:13:16;98671.41;;;7.61
29701;BMP280;57917;51.380;-0.176;2024-03-02T09:19:03;98697.06;;;7.33
29701;BMP280;57917;51.380;-0.176;2024-03-02T09:24:50;98670.59;;;6.80
29701;BMP280;57917;51.380;-0.176;2024-03-02T09:30:39;98694.81;;;6.91
29701;BMP280;57917;51.380;-0.176;2024-03-02T09:36:26;98682.50;;;7.13
29701;BMP280;57917;51.380;-0.176;2024-03-02T09:42:16;98702.56;;;7.23
29701;BMP280;57917;51.380;-0.176;2024-03-02T09:48:03;98694.94;;;7.21
29701;BMP280;57917;51.380;-0.176;2024-03-02T09:53:50;98683.66;;;6.85
29701;BMP280;57917;51.380;-0.176;2024-03-02T09:59:37;98681.41;;;6.65
29701;BMP280;57917;51.380;-0.176;2024-03-02T10:05:26;98710.16;;;7.24
29701;BMP280;57917;51.380;-0.176;2024-03-02T10:11:52;98701.56;;;6.83
29701;BMP280;57917;51.380;-0.176;2024-03-02T10:17:40;98725.31;;;6.78
29701;BMP280;57917;51.380;-0.176;2024-03-02T10:24:06;98740.44;;;7.57
29701;BMP280;57917;51.380;-0.176;2024-03-02T10:29:58;98737.63;;;7.76
29701;BMP280;57917;51.380;-0.176;2024-03-02T10:35:49;98717.72;;;7.26
29701;BMP280;57917;51.380;-0.176;2024-03-02T10:41:40;98734.31;;;6.77
29701;BMP280;57917;51.380;-0.176;2024-03-02T10:47:29;98757.63;;;7.06
29701;BMP280;57917;51.380;-0.176;2024-03-02T10:53:33;98751.50;;;6.97
29701;BMP280;57917;51.380;-0.176;2024-03-02T10:59:33;98769.03;;;7.01
29701;BMP280;57917;51.380;-0.176;2024-03-02T11:05:31;98773.41;;;7.06
29701;BMP280;57917;51.380;-0.176;2024-03-02T11:11:32;98777.22;;;6.86
29701;BMP280;57917;51.380;-0.176;2024-03-02T11:17:25;98789.00;;;7.02
29701;BMP280;57917;51.380;-0.176;2024-03-02T11:23:15;98789.88;;;7.11
29701;BMP280;57917;51.380;-0.176;2024-03-02T11:29:03;98785.94;;;7.36
29701;BMP280;57917;51.380;-0.176;2024-03-02T11:34:51;98782.72;;;7.61
29701;BMP280;57917;51.380;-0.176;2024-03-02T11:40:51;98788.00;;;7.83
29701;BMP280;57917;51.380;-0.176;2024-03-02T11:46:41;98782.84;;;7.92
29701;BMP280;57917;51.380;-0.176;2024-03-02T11:52:36;98797.53;;;8.45
29701;BMP280;57917;51.380;-0.176;2024-03-02T11:58:31;98774.50;;;8.29
29701;BMP280;57917;51.380;-0.176;2024-03-02T12:04:22;98779.66;;;8.34
29701;BMP280;57917;51.380;-0.176;2024-03-02T12:10:15;98788.88;;;8.53
29701;BMP280;57917;51.380;-0.176;2024-03-02T12:16:23;98765.22;;;8.40
29701;BMP280;57917;51.380;-0.176;2024-03-02T12:22:21;98779.44;;;8.61
29701;BMP280;57917;51.380;-0.176;2024-03-02T12:28:11;98783.59;;;9.01
29701;BMP280;57917;51.380;-0.176;2024-03-02T12:33:59;98766.69;;;9.28
29701;BMP280;57917;51.380;-0.176;2024-03-02T12:40:00;98761.56;;;9.23
29701;BMP280;57917;51.380;-0.176;2024-03-02T12:46:10;98771.81;;;9.16
29701;BMP280;57917;51.380;-0.176;2024-03-02T13:00:48;98772.91;;;9.74
29701;BMP280;57917;51.380;-0.176;2024-03-02T13:06:47;98759.69;;;9.57
29701;BMP280;57917;51.380;-0.176;2024-03-02T13:12:53;98757.53;;;9.34
29701;BMP280;57917;51.380;-0.176;2024-03-02T13:18:53;98765.59;;;9.54
29701;BMP280;57917;51.380;-0.176;2024-03-02T13:24:43;98749.13;;;9.49
29701;BMP280;57917;51.380;-0.176;2024-03-02T13:30:30;98757.06;;;9.49
29701;BMP280;57917;51.380;-0.176;2024-03-02T13:36:20;98757.53;;;9.08
29701;BMP280;57917;51.380;-0.176;2024-03-02T13:42:30;98758.31;;;9.34
29701;BMP280;57917;51.380;-0.176;2024-03-02T13:55:04;98747.75;;;9.43
29701;BMP280;57917;51.380;-0.176;2024-03-02T14:01:49;98754.28;;;9.54
29701;BMP280;57917;51.380;-0.176;2024-03-02T14:07:41;98751.78;;;9.49
29701;BMP280;57917;51.380;-0.176;2024-03-02T14:13:30;98763.28;;;9.53
29701;BMP280;57917;51.380;-0.176;2024-03-02T14:19:18;98757.69;;;9.54
29701;BMP280;57917;51.380;-0.176;2024-03-02T14:25:18;98750.06;;;9.44
29701;BMP280;57917;51.380;-0.176;2024-03-02T14:31:09;98745.41;;;9.07
29701;BMP280;57917;51.380;-0.176;2024-03-02T14:37:00;98747.91;;;9.12
29701;BMP280;57917;51.380;-0.176;2024-03-02T14:42:51;98764.03;;;9.11
29701;BMP280;57917;51.380;-0.176;2024-03-02T14:48:47;98767.47;;;9.11
29701;BMP280;57917;51.380;-0.176;2024-03-02T14:54:38;98773.19;;;9.30
29701;BMP280;57917;51.380;-0.176;2024-03-02T15:00:28;98783.00;;;9.38
29701;BMP280;57917;51.380;-0.176;2024-03-02T15:06:21;98782.69;;;9.31
29701;BMP280;57917;51.380;-0.176;2024-03-02T15:12:17;98782.34;;;9.07
29701;BMP280;57917;51.380;-0.176;2024-03-02T15:18:28;98792.03;;;9.20
29701;BMP280;57917;51.380;-0.176;2024-03-02T15:24:18;98812.38;;;9.28
29701;BMP280;57917;51.380;-0.176;2024-03-02T15:30:09;98814.34;;;9.14
29701;BMP280;57917;51.380;-0.176;2024-03-02T15:36:34;98813.22;;;8.90
29701;BMP280;57917;51.380;-0.176;2024-03-02T15:42:34;98826.97;;;8.78
29701;BMP280;57917;51.380;-0.176;2024-03-02T15:48:42;98838.63;;;8.77
29701;BMP280;57917;51.380;-0.176;2024-03-02T15:54:38;98856.16;;;8.51
29701;BMP280;57917;51.380;-0.176;2024-03-02T16:00:33;98874.28;;;8.22
29701;BMP280;57917;51.380;-0.176;2024-03-02T16:06:26;98907.19;;;7.89
29701;BMP280;57917;51.380;-0.176;2024-03-02T16:12:13;98911.22;;;7.73
29701;BMP280;57917;51.380;-0.176;2024-03-02T16:18:02;98911.25;;;7.95
29701;BMP280;57917;51.380;-0.176;2024-03-02T16:23:50;98906.41;;;8.02
29701;BMP280;57917;51.380;-0.176;2024-03-02T16:29:45;98908.06;;;7.98
29701;BMP280;57917;51.380;-0.176;2024-03-02T16:35:37;98904.34;;;7.99
29701;BMP280;57917;51.380;-0.176;2024-03-02T16:41:24;98912.13;;;8.04
29701;BMP280;57917;51.380;-0.176;2024-03-02T16:47:16;98904.31;;;7.77
29701;BMP280;57917;51.380;-0.176;2024-03-02T16:53:03;98918.13;;;7.82
29701;BMP280;57917;51.380;-0.176;2024-03-02T16:58:53;98921.31;;;7.93
29701;BMP280;57917;51.380;-0.176;2024-03-02T17:04:40;98922.59;;;7.95
29701;BMP280;57917;51.380;-0.176;2024-03-02T17:10:41;98927.38;;;7.93
29701;BMP280;57917;51.380;-0.176;2024-03-02T17:16:33;98937.25;;;7.88
29701;BMP280;57917;51.380;-0.176;2024-03-02T17:22:38;98939.81;;;7.66
29701;BMP280;57917;51.380;-0.176;2024-03-02T17:28:30;98952.28;;;7.60
29701;BMP280;57917;51.380;-0.176;2024-03-02T17:34:19;98953.16;;;7.42
29701;BMP280;57917;51.380;-0.176;2024-03-02T17:40:10;98971.78;;;7.32
29701;BMP280;57917;51.380;-0.176;2024-03-02T17:46:06;98975.78;;;7.29
29701;BMP280;57917;51.380;-0.176;2024-03-02T17:51:59;98989.41;;;7.18
29701;BMP280;57917;51.380;-0.176;2024-03-02T17:57:59;99003.91;;;7.15
29701;BMP280;57917;51.380;-0.176;2024-03-02T18:03:46;99008.69;;;7.13
29701;BMP280;57917;51.380;-0.176;2024-03-02T18:09:37;99019.03;;;7.10
29701;BMP280;57917;51.380;-0.176;2024-03-02T18:15:26;99021.09;;;6.94
29701;BMP280;57917;51.380;-0.176;2024-03-02T18:21:14;99040.25;;;6.81
29701;BMP280;57917;51.380;-0.176;2024-03-02T18:27:05;99046.22;;;6.68
29701;BMP280;57917;51.380;-0.176;2024-03-02T18:32:55;99047.78;;;6.69
29701;BMP280;57917;51.380;-0.176;2024-03-02T18:38:42;99050.41;;;6.69
29701;BMP280;57917;51.380;-0.176;2024-03-02T18:44:30;99065.19;;;6.65
29701;BMP280;57917;51.380;-0.176;2024-03-02T18:50:20;99067.53;;;6.67
29701;BMP280;57917;51.380;-0.176;2024-03-02T18:56:22;99078.75;;;6.54
29701;BMP280;57917;51.380;-0.176;2024-03-02T19:02:19;99099.00;;;6.53
29701;BMP280;57917;51.380;-0.176;2024-03-02T19:08:16;99103.97;;;6.55
29701;BMP280;57917;51.380;-0.176;2024-03-02T19:14:06;99113.84;;;6.44
29701;BMP280;57917;51.380;-0.176;2024-03-02T19:19:53;99109.00;;;6.32
29701;BMP280;57917;51.380;-0.176;2024-03-02T19:25:40;99107.19;;;6.28
29701;BMP280;57917;51.380;-0.176;2024-03-02T19:31:28;99111.16;;;6.25
29701;BMP280;57917;51.380;-0.176;2024-03-02T19:37:24;99112.03;;;6.21
29701;BMP280;57917;51.380;-0.176;2024-03-02T19:43:14;99126.44;;;6.23
29701;BMP280;57917;51.380;-0.176;2024-03-02T19:49:28;99126.34;;;6.10
29701;BMP280;57917;51.380;-0.176;2024-03-02T19:56:05;99128.31;;;6.18
29701;BMP280;57917;51.380;-0.176;2024-03-02T20:10:42;99154.81;;;5.98
29701;BMP280;57917;51.380;-0.176;2024-03-02T20:17:25;99145.97;;;5.89
29701;BMP280;57917;51.380;-0.176;2024-03-02T20:23:24;99137.56;;;5.87
29701;BMP280;57917;51.380;-0.176;2024-03-02T20:29:44;99146.59;;;5.76
29701;BMP280;57917;51.380;-0.176;2024-03-02T20:35:54;99152.88;;;5.80
29701;BMP280;57917;51.380;-0.176;2024-03-02T20:41:49;99158.97;;;5.70
29701;BMP280;57917;51.380;-0.176;2024-03-02T20:47:39;99160.78;;;5.75
29701;BMP280;57917;51.380;-0.176;2024-03-02T20:53:39;99157.59;;;5.83
29701;BMP280;57917;51.380;-0.176;2024-03-02T20:59:28;99164.63;;;5.87
29701;BMP280;57917;51.380;-0.176;2024-03-02T21:06:01;99181.22;;;5.83
29701;BMP280;57917;51.380;-0.176;2024-03-02T21:11:51;99183.59;;;5.79
29701;BMP280;57917;51.380;-0.176;2024-03-02T21:17:53;99177.59;;;5.74
29701;BMP280;57917;51.380;-0.176;2024-03-02T21:23:51;99181.03;;;5.69
29701;BMP280;57917;51.380;-0.176;2024-03-02T21:29:45;99200.78;;;5.67
29701;BMP280;57917;51.380;-0.176;2024-03-02T21:36:22;99208.84;;;5.75
29701;BMP280;57917;51.380;-0.176;2024-03-02T21:42:46;99206.06;;;5.57
29701;BMP280;57917;51.380;-0.176;2024-03-02T21:48:43;99218.22;;;5.48
29701;BMP280;57917;51.380;-0.176;2024-03-02T21:54:30;99217.69;;;5.46
29701;BMP280;57917;51.380;-0.176;2024-03-02T22:00:24;99228.69;;;5.53
29701;BMP280;57917;51.380;-0.176;2024-03-02T22:06:14;99235.19;;;5.55
29701;BMP280;57917;51.380;-0.176;2024-03-02T22:12:12;99240.41;;;5.21
29701;BMP280;57917;51.380;-0.176;2024-03-02T22:18:08;99248.47;;;5.30
29701;BMP280;57917;51.380;-0.176;2024-03-02T22:24:04;99246.38;;;5.32
29701;BMP280;57917;51.380;-0.176;2024-03-02T22:30:10;99255.59;;;5.24
29701;BMP280;57917;51.380;-0.176;2024-03-02T22:36:28;99255.63;;;5.19
29701;BMP280;57917;51.380;-0.176;2024-03-02T22:42:20;99263.44;;;5.24
29701;BMP280;57917;51.380;-0.176;2024-03-02T22:48:15;99265.06;;;5.20
29701;BMP280;57917;51.380;-0.176;2024-03-02T22:54:16;99266.31;;;5.33
29701;BMP280;57917;51.380;-0.176;2024-03-02T23:00:32;99271.16;;;5.55
29701;BMP280;57917;51.380;-0.176;2024-03-02T23:06:44;99262.91;;;5.37
29701;BMP280;57917;51.380;-0.176;2024-03-02T23:12:39;99262.09;;;5.32
29701;BMP280;57917;51.380;-0.176;2024-03-02T23:18:41;99279.09;;;5.50
29701;BMP280;57917;51.380;-0.176;2024-03-02T23:25:37;99291.84;;;5.66
29701;BMP280;57917;51.380;-0.176;2024-03-02T23:31:24;99288.72;;;5.59
29701;BMP280;57917;51.380;-0.176;2024-03-02T23:37:11;99304.81;;;5.42
29701;BMP280;57917;51.380;-0.176;2024-03-02T23:43:02;99306.91;;;5.46
29701;BMP280;57917;51.380;-0.176;2024-03-02T23:48:55;99300.94;;;5.30
29701;BMP280;57917;51.380;-0.176;2024-03-02T23:54:42;99295.47;;;5.21
